Latest Weather Observations for Cape Otway

IDV60801

Issued at 4:31 am EST Tuesday 28 April 2015 (issued every 30 minutes, with the page automatically refreshed every 10 minutes)

About weather observations | Map of weather stations | Latest weather observations for VIC | Other Formats
Station Details ID: 090015 Name: CAPE OTWAY LIGHTHOUSE Lat: -38.86 Lon: 143.51 Height: 82.0 m
Data from the previous 72 hours. | See also: Recent months at Cape Otway
Date/Time
EST
Temp
°C
App
Temp
°C
Dew
Point
Rel
Hum
%
Delta-T
°C
Wind Press
QNH
hPa
Press
MSL
hPa
Rain
since 9 am
mm
Dir
 
Spd
km/h
Gust
km/h
Spd
kts
Gust
kts
28/04:30am 12.4 9.4 9.2 81 1.6 SW 15 26 8 14 1027.2 - 0.8
28/04:00am 12.5 8.9 8.2 75 2.1 SSW 17 26 9 14 1027.0 - 0.8
28/03:30am 12.2 9.3 8.1 76 2.0 SSW 13 20 7 11 1026.8 - 0.8
28/03:00am 11.9 7.1 8.9 82 1.5 SSW 24 33 13 18 1026.8 1026.8 0.8
28/02:30am 11.8 6.5 9.9 88 1.0 SSW 28 41 15 22 1026.7 - 0.8
28/02:00am 11.8 7.4 9.0 83 1.4 SSW 22 33 12 18 1026.7 - 0.6
28/01:30am 12.2 7.6 9.8 85 1.2 SSW 24 37 13 20 1026.5 - 0.4
28/01:00am 12.8 9.1 6.2 64 3.1 SW 15 22 8 12 1026.7 - 0.4
28/12:30am 12.9 9.4 7.4 69 2.7 SW 15 24 8 13 1026.6 - 0.4
28/12:00am 12.7 9.0 7.8 72 2.4 SSW 17 24 9 13 1026.7 1026.7 0.4
 
Date/Time
EST
Temp
°C
App
Temp
°C
Dew
Point
Rel
Hum
%
Delta-T
°C
Wind Press
QNH
hPa
Press
MSL
hPa
Rain
since 9 am
mm
Dir
 
Spd
km/h
Gust
km/h
Spd
kts
Gust
kts
27/11:30pm 12.6 7.8 8.9 78 1.9 SSW 24 32 13 17 1026.7 - 0.4
27/11:00pm 12.4 7.6 8.9 79 1.8 SSW 24 33 13 18 1026.8 - 0.4
27/10:30pm 12.5 8.0 8.4 76 2.0 SSW 22 33 12 18 1026.6 - 0.4
27/10:00pm 12.8 9.0 8.9 77 2.0 SSW 19 28 10 15 1026.5 - 0.2
27/09:30pm 11.9 8.7 9.8 87 1.1 SW 17 24 9 13 1026.4 - 0.2
27/09:00pm 12.0 8.7 9.4 84 1.3 SW 17 22 9 12 1026.2 1026.2 0.2
27/08:30pm 12.5 7.8 9.3 81 1.6 SSW 24 35 13 19 1026.0 - 0.2
27/08:00pm 12.6 8.4 9.8 83 1.4 SSW 22 35 12 19 1025.7 - 0.2
27/07:30pm 12.6 7.7 8.5 76 2.0 SSW 24 32 13 17 1025.5 - 0.2
27/07:00pm 12.3 8.4 8.8 79 1.8 SW 19 28 10 15 1025.2 - 0.2
27/06:30pm 12.0 6.6 9.4 84 1.3 SSW 28 39 15 21 1024.9 - 0.2
27/06:00pm 12.3 7.3 8.0 75 2.1 SW 24 32 13 17 1024.6 1024.5 0.2
27/05:30pm 12.5 7.7 8.8 78 1.9 SSW 24 35 13 19 1024.4 - 0.2
27/05:00pm 12.6 7.7 8.3 75 2.1 SW 24 32 13 17 1024.2 - 0.2
27/04:30pm 12.0 7.7 9.4 84 1.3 WSW 22 35 12 19 1024.2 - 0.2
27/04:00pm 13.4 8.2 8.9 74 2.3 SW 26 37 14 20 1024.0 - 0.2
27/03:30pm 12.3 8.4 8.8 79 1.8 SW 19 32 10 17 1023.9 - 0.2
27/03:00pm 13.0 8.3 7.7 70 2.6 SW 22 30 12 16 1023.9 1023.8 0.2
27/02:30pm 12.3 5.8 9.1 81 1.6 SSW 33 48 18 26 1023.5 - 0.2
27/02:21pm 13.1 7.7 9.5 79 1.8 SW 28 46 15 25 1023.4 - 0.2
27/02:00pm 12.9 7.6 8.4 74 2.2 SW 26 35 14 19 1023.4 - 0.2
27/01:30pm 11.6 6.0 8.6 82 1.5 SW 28 41 15 22 1023.4 - 0.2
27/01:00pm 13.6 7.9 8.4 71 2.6 SW 28 35 15 19 1023.4 - 0.2
27/12:30pm 13.0 7.0 8.5 74 2.3 SW 30 41 16 22 1023.6 - 0.2
27/12:00pm 13.0 7.8 8.9 76 2.1 SW 26 35 14 19 1023.8 1023.7 0.2
27/11:30am 11.6 5.5 9.7 88 1.0 SSW 32 46 17 25 1024.0 - 0.0
27/11:00am 13.0 6.5 8.1 72 2.4 SW 32 44 17 24 1023.8 - 0.0
27/10:30am 13.3 8.0 8.4 72 2.5 SW 26 37 14 20 1023.8 - 0.0
27/10:00am 12.4 8.0 8.9 79 1.8 SW 22 32 12 17 1023.7 - 0.0
27/09:30am 12.4 8.1 9.4 82 1.5 SW 22 30 12 16 1023.5 - 0.0
27/09:00am 11.0 4.2 9.3 89 0.8 SW 35 48 19 26 1023.4 1023.3 1.8
27/08:55am 11.4 6.1 9.7 89 0.9 SW 28 48 15 26 1023.3 - 1.8
27/08:30am 11.4 6.4 9.7 89 0.9 SSW 26 37 14 20 1023.2 - 1.6
27/08:00am 11.8 5.8 8.8 82 1.5 WSW 30 43 16 23 1022.9 - 1.4
27/07:30am 11.9 7.8 8.7 81 1.6 SW 20 32 11 17 1022.6 - 1.4
27/07:00am 11.9 6.5 8.0 77 1.9 SW 26 41 14 22 1022.3 - 1.4
27/06:32am 12.3 6.3 8.6 78 1.8 SW 30 48 16 26 1021.8 - 1.4
27/06:30am 12.6 6.6 8.7 77 2.0 SW 30 44 16 24 1021.8 - 1.4
27/06:00am 12.4 5.7 8.1 75 2.1 SW 33 43 18 23 1021.8 1021.7 1.4
27/05:30am 11.7 6.4 8.6 81 1.5 SSW 26 39 14 21 1021.7 - 1.4
27/05:21am 11.7 6.2 9.1 84 1.3 SW 28 46 15 25 1021.6 - 1.4
27/05:00am 12.3 6.2 9.7 84 1.3 SW 32 44 17 24 1021.5 - 1.4
27/04:30am 12.9 6.9 8.6 75 2.2 SW 30 41 16 22 1021.1 - 1.4
27/04:00am 12.6 5.9 8.3 75 2.1 SW 33 46 18 25 1021.0 - 1.4
27/03:43am 12.5 6.1 8.6 77 1.9 SW 32 50 17 27 1021.0 - 1.4
27/03:30am 12.5 5.5 8.4 76 2.0 SW 35 46 19 25 1021.0 - 1.4
27/03:00am 12.6 6.1 8.9 78 1.9 SW 33 46 18 25 1021.1 1021.0 1.4
27/02:30am 12.7 6.9 9.5 81 1.6 SW 30 37 16 20 1021.0 - 1.4
27/02:00am 11.8 6.8 9.5 86 1.2 SW 26 35 14 19 1021.2 - 1.4
27/01:30am 11.8 5.2 9.9 88 1.0 SW 35 50 19 27 1021.1 - 1.4
27/01:25am 11.9 5.8 9.6 86 1.2 SW 32 50 17 27 1021.1 - 1.2
27/01:00am 12.4 6.2 9.2 81 1.6 SW 32 44 17 24 1021.0 - 1.2
27/12:30am 12.2 6.4 9.4 83 1.4 SSW 30 39 16 21 1021.1 - 1.2
27/12:00am 12.4 6.7 9.8 84 1.3 SW 30 39 16 21 1021.2 1021.1 1.2
 
Date/Time
EST
Temp
°C
App
Temp
°C
Dew
Point
Rel
Hum
%
Delta-T
°C
Wind Press
QNH
hPa
Press
MSL
hPa
Rain
since 9 am
mm
Dir
 
Spd
km/h
Gust
km/h
Spd
kts
Gust
kts
26/11:30pm 12.4 6.1 9.1 80 1.7 SW 32 46 17 25 1021.1 - 1.2
26/11:00pm 12.4 6.4 10.0 85 1.2 SW 32 48 17 26 1021.0 - 1.2
26/10:41pm 12.1 6.0 10.3 89 0.9 SW 33 52 18 28 1021.2 - 1.0
26/10:30pm 11.8 6.2 10.0 89 0.9 WSW 30 43 16 23 1021.1 - 1.0
26/10:00pm 12.0 5.9 9.9 87 1.1 SW 32 48 17 26 1021.2 - 1.0
26/09:36pm 12.6 6.5 9.8 83 1.4 SW 32 54 17 29 1021.1 - 0.6
26/09:30pm 12.6 6.5 9.8 83 1.4 WSW 32 44 17 24 1021.2 - 0.6
26/09:00pm 12.4 5.7 9.8 84 1.3 SW 35 48 19 26 1021.0 1020.9 0.6
26/08:30pm 12.7 5.3 9.9 83 1.4 WSW 39 54 21 29 1020.8 - 0.6
26/08:05pm 12.5 6.9 10.0 85 1.3 WSW 30 50 16 27 1020.7 - 0.6
26/08:00pm 12.2 5.5 9.6 84 1.3 WSW 35 50 19 27 1020.8 - 0.6
26/07:45pm 13.0 6.6 9.4 79 1.8 WSW 33 52 18 28 1020.6 - 0.6
26/07:30pm 12.6 6.1 9.1 79 1.8 WSW 33 46 18 25 1020.7 - 0.6
26/07:00pm 12.6 5.8 9.2 80 1.7 WSW 35 44 19 24 1020.5 - 0.6
26/06:30pm 12.1 6.2 10.5 90 0.8 WSW 32 52 17 28 1020.3 - 0.4
26/06:00pm 11.5 5.9 10.1 91 0.7 WSW 30 48 16 26 1020.2 1020.1 0.2
26/05:43pm 12.6 6.2 8.7 77 2.0 WSW 32 50 17 27 1019.9 - 0.0
26/05:30pm 12.7 6.3 8.6 76 2.1 WSW 32 46 17 25 1019.8 - 0.0
26/05:00pm 13.3 7.1 9.2 76 2.1 WSW 32 48 17 26 1019.8 - 0.0
26/04:30pm 12.3 5.4 9.0 80 1.7 WSW 35 54 19 29 1020.0 - 0.0
26/04:20pm 13.0 7.0 8.5 74 2.3 WSW 30 48 16 26 1019.8 - 0.0
26/04:00pm 13.1 7.0 8.4 73 2.3 W 30 41 16 22 1019.6 - 0.0
26/03:30pm 13.2 6.1 8.1 71 2.5 WSW 35 48 19 26 1019.4 - 0.0
26/03:00pm 13.1 6.4 8.0 71 2.5 WSW 33 44 18 24 1019.3 1019.2 0.0
26/02:30pm 13.4 6.8 8.5 72 2.5 WSW 33 46 18 25 1019.3 - 0.0
26/02:00pm 13.4 5.6 6.7 64 3.2 WSW 37 52 20 28 1019.1 - 0.0
26/01:30pm 13.3 5.6 7.3 67 2.9 WSW 37 48 20 26 1019.1 - 0.0
26/01:00pm 13.2 5.7 6.3 63 3.3 WSW 35 46 19 25 1019.1 - 0.0
26/12:30pm 12.6 6.7 7.7 72 2.4 WSW 28 48 15 26 1019.1 - 0.0
26/12:03pm 11.7 5.4 8.9 83 1.4 SW 32 50 17 27 1019.6 - 0.0
26/12:00pm 11.7 4.8 8.9 83 1.4 SW 35 50 19 27 1019.6 1019.5 0.0
26/11:49am 11.9 3.4 8.6 80 1.6 SW 43 61 23 33 1019.5 - 0.0
26/11:30am 12.7 4.6 8.8 77 2.0 SW 41 57 22 31 1019.5 - 0.0
26/11:13am 13.3 6.2 8.2 71 2.5 SW 35 56 19 30 1019.4 - 0.0
26/11:00am 13.5 6.8 8.1 70 2.7 WSW 33 48 18 26 1019.5 - 0.0
26/10:30am 11.7 5.5 9.4 86 1.2 SW 32 43 17 23 1019.6 - 0.0
26/10:03am 11.5 5.3 9.4 87 1.1 WSW 32 52 17 28 1019.6 - 0.0
26/10:00am 11.6 5.2 9.2 85 1.2 SW 33 50 18 27 1019.7 - 0.0
26/09:44am 12.7 6.2 8.8 77 2.0 SW 33 57 18 31 1019.3 - 0.0
26/09:30am 12.9 7.6 8.6 75 2.2 WSW 26 35 14 19 1019.4 - 0.0
26/09:00am 12.0 5.6 8.5 79 1.7 SSW 32 50 17 27 1019.4 1019.3 3.0
26/08:51am 11.9 4.5 8.2 78 1.8 SSW 37 50 20 27 1019.2 - 3.0
26/08:30am 12.4 5.6 7.5 72 2.4 WSW 33 50 18 27 1019.1 - 3.0
26/08:21am 12.1 5.5 7.6 74 2.2 SW 32 50 17 27 1018.9 - 3.0
26/08:00am 11.4 4.3 7.9 79 1.7 SW 35 50 19 27 1018.8 - 3.0
26/07:32am 11.3 5.7 8.7 84 1.3 SW 28 48 15 26 1018.4 - 3.0
26/07:30am 11.8 6.4 9.5 86 1.2 SW 28 43 15 23 1018.3 - 3.0
26/07:00am 12.1 5.6 8.0 76 2.0 SSW 32 43 17 23 1017.9 - 2.8
26/06:41am 11.4 4.6 7.9 79 1.7 SSW 33 52 18 28 1017.9 - 2.8
26/06:30am 11.9 5.3 8.4 79 1.7 SSW 33 50 18 27 1017.6 - 2.8
26/06:11am 10.9 5.0 9.2 89 0.9 SW 30 50 16 27 1017.8 - 2.8
26/06:03am 11.2 2.8 8.8 85 1.2 SSW 43 50 23 27 1017.5 - 2.6
26/06:00am 11.0 5.0 8.6 85 1.2 SW 30 48 16 26 1017.6 1017.5 2.6
26/05:30am 10.8 4.3 9.1 89 0.8 SW 33 46 18 25 1017.5 - 2.6
26/05:00am 10.6 4.0 8.5 87 1.0 SSW 33 52 18 28 1017.2 - 2.6
26/04:30am 11.2 5.0 7.9 80 1.6 SSW 30 52 16 28 1016.9 - 2.4
26/04:17am 11.8 5.9 9.2 84 1.3 SSW 30 48 16 26 1016.7 - 2.4
26/04:00am 12.3 6.3 8.8 79 1.8 SSW 30 41 16 22 1016.8 - 2.4
26/03:30am 11.7 4.5 7.6 76 2.0 SSW 35 48 19 26 1016.7 - 2.4
26/03:00am 11.7 6.1 8.6 81 1.5 SSW 28 43 15 23 1016.7 1016.6 2.4
26/02:47am 11.1 4.8 9.0 87 1.0 SSW 32 50 17 27 1016.7 - 2.4
26/02:30am 12.1 6.3 9.3 83 1.4 SW 30 43 16 23 1016.4 - 2.4
26/02:00am 12.0 5.9 8.1 77 1.9 SSW 30 41 16 22 1016.4 - 2.4
26/01:30am 11.8 4.7 8.1 78 1.8 SSW 35 46 19 25 1016.4 - 2.4
26/01:10am 11.7 6.0 8.4 80 1.6 SSW 28 46 15 25 1016.2 - 2.4
26/01:00am 11.4 5.8 8.8 84 1.3 SSW 28 43 15 23 1016.4 - 2.4
26/12:41am 11.6 6.1 9.2 85 1.2 SSW 28 44 15 24 1016.2 - 2.4
26/12:30am 11.1 7.3 9.2 88 1.0 SSW 19 26 10 14 1016.3 - 2.4
26/12:04am 11.6 5.6 8.6 82 1.5 SSW 30 48 16 26 1015.9 - 2.2
26/12:00am 12.0 5.8 7.7 75 2.1 SSW 30 39 16 21 1016.2 1016.1 2.2
 
Date/Time
EST
Temp
°C
App
Temp
°C
Dew
Point
Rel
Hum
%
Delta-T
°C
Wind Press
QNH
hPa
Press
MSL
hPa
Rain
since 9 am
mm
Dir
 
Spd
km/h
Gust
km/h
Spd
kts
Gust
kts
25/11:30pm 12.3 5.3 7.0 70 2.6 SSW 33 50 18 27 1015.9 - 2.2
25/11:25pm 12.4 6.6 7.9 74 2.2 SSW 28 50 15 27 1015.7 - 2.2
25/11:00pm 12.2 6.4 7.9 75 2.1 SSW 28 44 15 24 1016.0 - 2.2
25/10:56pm 12.0 5.3 7.3 73 2.3 SSW 32 50 17 27 1016.0 - 2.2
25/10:30pm 12.1 6.2 7.6 74 2.2 SSW 28 44 15 24 1015.9 - 2.2
25/10:00pm 12.8 7.5 7.0 68 2.8 SSW 24 41 13 22 1015.8 - 2.0
25/09:30pm 12.7 6.9 6.1 64 3.1 SSW 26 39 14 21 1015.7 - 2.0
25/09:00pm 12.6 5.4 5.8 63 3.2 SSW 33 46 18 25 1015.5 1015.5 2.0
25/08:30pm 12.7 6.5 6.1 64 3.1 SSW 28 44 15 24 1015.0 - 2.0
25/08:00pm 12.8 8.5 7.0 68 2.8 SW 19 28 10 15 1014.9 - 2.0
25/07:30pm 12.7 8.1 6.7 67 2.9 SSW 20 35 11 19 1014.7 - 2.0
25/07:00pm 12.6 7.0 7.1 69 2.7 SSW 26 39 14 21 1014.1 - 2.0
25/06:30pm 12.6 6.1 8.3 75 2.1 SSW 32 43 17 23 1013.9 - 2.0
25/06:00pm 12.4 6.9 9.1 80 1.7 SSW 28 41 15 22 1013.4 1013.3 2.0
25/05:30pm 12.6 6.6 8.7 77 2.0 SSW 30 43 16 23 1013.0 - 2.0
25/05:00pm 12.8 6.0 9.3 79 1.8 SSW 35 50 19 27 1012.7 - 2.0
25/04:44pm 12.9 7.6 9.7 81 1.6 SSW 28 48 15 26 1012.5 - 2.0
25/04:30pm 12.9 8.1 10.4 85 1.3 SSW 26 39 14 21 1012.3 - 2.0
25/04:00pm 13.2 7.9 10.0 81 1.7 SSW 28 39 15 21 1011.7 - 2.0
25/03:30pm 13.6 9.0 9.8 78 2.0 SW 24 33 13 18 1011.3 - 2.0
25/03:00pm 13.7 9.0 10.7 82 1.6 SW 26 37 14 20 1010.7 1010.6 2.0
25/02:30pm 13.7 9.3 10.5 81 1.7 SW 24 33 13 18 1010.4 - 2.0
25/02:00pm 13.9 10.8 11.6 86 1.2 WSW 19 30 10 16 1010.2 - 2.0
25/01:30pm 13.7 10.0 11.6 87 1.1 SW 22 30 12 16 1010.0 - 2.0
25/01:00pm 14.3 12.2 11.3 82 1.6 WSW 13 24 7 13 1010.0 - 2.0
25/12:30pm 14.4 11.7 10.2 76 2.2 SW 15 22 8 12 1010.1 - 2.0
25/12:00pm 14.3 12.6 11.3 82 1.6 SW 11 17 6 9 1010.1 1010.0 2.0
25/11:30am 13.9 12.2 11.2 84 1.4 W 11 20 6 11 1010.0 - 2.0
25/11:00am 13.5 11.5 11.6 88 1.0 WSW 13 20 7 11 1009.8 - 2.0
25/10:30am 13.2 11.7 11.8 91 0.8 W 11 20 6 11 1009.6 - 2.0
25/10:00am 13.2 11.4 12.1 93 0.6 WSW 13 30 7 16 1009.4 - 2.0
25/09:30am 12.8 10.2 12.0 95 0.4 SSE 17 26 9 14 1009.3 - 1.0
25/09:00am 12.7 11.6 12.1 96 0.3 SE 9 19 5 10 1009.2 1009.1 19.4
25/08:30am 11.9 10.6 11.3 96 0.3 N 9 13 5 7 1009.0 - 15.0
25/08:00am 12.2 10.6 11.6 96 0.3 NNW 11 15 6 8 1008.3 - 10.8
25/07:30am 12.5 10.6 11.9 96 0.3 NW 13 19 7 10 1007.8 - 9.2
25/07:00am 12.4 9.7 11.6 95 0.4 W 17 24 9 13 1007.6 - 6.6
25/06:30am 12.6 10.7 11.8 95 0.4 W 13 22 7 12 1007.4 - 5.4
25/06:00am 12.1 10.4 11.3 95 0.4 NNW 11 22 6 12 1007.0 1006.9 5.2
25/05:30am 12.1 9.7 11.3 95 0.4 NW 15 22 8 12 1006.8 - 4.6
25/05:00am 12.1 8.9 11.3 95 0.4 NW 19 28 10 15 1006.5 - 4.6

Other Formats:

Comma delimited format used in spreadsheet applications
http://www.bom.gov.au/fwo/IDV60801/IDV60801.94842.axf

JavaScript Object Notation format (JSON) in row-major order
http://www.bom.gov.au/fwo/IDV60801/IDV60801.94842.json